Terminal Aerodrome Forecast
Issued by NWS Melbourne, FL

Home | Current Version | Previous Version | Text Only | Print | Product List | Glossary On
Versions: 1 2 3 4 5 6 7 8 9 10 11 12 13 14 15 16 17 18 19 20 21 22 23 24
000
FTUS42 KMLB 310500
TAFMCO
TAF
KMCO 310538Z 3106/0106 28005KT P6SM VCSH SCT040 BKN120 BKN240
      TEMPO 3108/3111 BKN030 BKN060
     FM311300 32009KT P6SM FEW040 SCT250=

USA.gov is the U.S. government's official web portal to all federal, state and local government web resources and services.